Polaris — JD2797 — position and weather

sailwx.info

Track history (hours):
 
Tides and Currents Weather Stations Pressure Air Temp Water Temp Dewpoint Dewpoint Depression Visibility Wind Speed Wind Dir Waves Ship Positions

Polaris

Last reported at 2014-Sep-19 13:34 UTC. Time now 2014-Sep-19 13:54 UTC.
Position N 35°27' E 139°40'.

Length 26 m.

MMSI: 431000764.

Date/timePositionNaut miles runAvg speedWind from/ knotsBaromVisibWave heightAir tempDewpointWater temp
2014-Sep-19 13:34N 35°27' E 139°40'0 0.0
2014-Sep-19 12:34N 35°27' E 139°40'0 0.0
2014-Sep-19 11:33N 35°27' E 139°40'0 0.0
2014-Sep-19 10:34N 35°27' E 139°40'0 0.0
2014-Sep-19 09:34N 35°27' E 139°40'0 0.0
2014-Sep-19 08:34N 35°27' E 139°40'9 8.6
2014-Sep-19 07:33N 35°19' E 139°44'6 4.8
2014-Sep-19 06:20N 35°13' E 139°46'1013.2
2014-Sep-19 05:33N 35°23' E 139°42'4 4.4
2014-Sep-19 04:33N 35°27' E 139°40'0 0.0
2014-Sep-19 03:33N 35°27' E 139°40'0 0.0
2014-Sep-19 02:33N 35°27' E 139°40'0 0.0
2014-Sep-19 01:33N 35°27' E 139°40'0 0.0
2014-Sep-19 00:33N 35°27' E 139°40'0 0.0
2014-Sep-18 23:33N 35°27' E 139°40'0 0.0
2014-Sep-18 22:33N 35°27' E 139°40'0 0.0
2014-Sep-18 21:33N 35°27' E 139°40'0 0.0
2014-Sep-18 20:33N 35°27' E 139°40'0 0.0
2014-Sep-18 19:33N 35°27' E 139°40'4 3.8
2014-Sep-18 18:34N 35°23' E 139°42'10 9.7
2014-Sep-18 17:31N 35°14' E 139°46'1313.5
2014-Sep-18 16:34N 35°27' E 139°43'3 2.5
2014-Sep-18 15:33N 35°27' E 139°40'1 0.8
2014-Sep-18 14:33N 35°27' E 139°40'0 0.0
2014-Sep-17 08:22N 35°27' E 139°40'6 7.5
2014-Sep-17 07:33N 35°23' E 139°46'1211.8
2014-Sep-17 06:33N 35°11' E 139°47'6 6.2
2014-Sep-17 05:33N 35°17' E 139°44'10 0.4
2014-Sep-16 06:18N 35°27' E 139°40'6 8.2
2014-Sep-16 05:33N 35°30' E 139°46'2 1.6
2014-Sep-16 04:33N 35°30' E 139°44'5 4.7
2014-Sep-16 03:33N 35°27' E 139°40'0 0.0
2014-Sep-16 02:33N 35°27' E 139°40'0 0.0
2014-Sep-16 01:33N 35°27' E 139°40'0 0.0
2014-Sep-16 00:33N 35°27' E 139°40'0 0.3
2014-Sep-15 23:33N 35°27' E 139°40'3 3.2
2014-Sep-15 22:34N 35°29' E 139°43'3 3.5
2014-Sep-15 21:33N 35°27' E 139°40'2 0.2
2014-Sep-15 10:33N 35°25' E 139°42'1313.3
2014-Sep-15 09:33N 35°12' E 139°46'1211.7
2014-Sep-15 08:33N 35°24' E 139°43'4 4.0
2014-Sep-15 07:34N 35°27' E 139°40'1 0.1
2014-Sep-14 20:33N 35°27' E 139°40'1010.4
2014-Sep-14 19:33N 35°17' E 139°45'7 7.1
2014-Sep-14 18:33N 35°10' E 139°47'1212.3
2014-Sep-14 17:33N 35°22' E 139°42'5 5.1
2014-Sep-14 16:33N 35°27' E 139°40'  
2014-Sep-12 07:12N 35°27' E 139°40'6 9.8
2014-Sep-12 06:33N 35°30' E 139°46'2 1.6
2014-Sep-12 05:34N 35°31' E 139°44'5 0.1
2014-Sep-10 06:33N 35°27' E 139°42'1414.2
2014-Sep-10 05:33N 35°13' E 139°46'10 9.7
2014-Sep-10 04:34N 35°22' E 139°42'3 2.6
2014-Sep-10 03:33N 35°25' E 139°43'3 3.5
2014-Sep-10 02:33N 35°27' E 139°40'0 0.0
2014-Sep-10 01:33N 35°27' E 139°40'0 0.0
2014-Sep-10 00:33N 35°27' E 139°40'0 0.0
2014-Sep-09 23:33N 35°27' E 139°40'0 0.0
2014-Sep-09 22:33N 35°27' E 139°40'3 3.0
2014-Sep-09 21:34N 35°26' E 139°43'10 9.7
2014-Sep-09 20:33N 35°17' E 139°45'6 6.4
2014-Sep-09 19:33N 35°11' E 139°47'1212.2
2014-Sep-09 18:33N 35°22' E 139°42'5 5.1
2014-Sep-09 17:33N 35°27' E 139°40'  
Track history (hours):
 
Tides and Currents Weather Stations Pressure Air Temp Water Temp Dewpoint Dewpoint Depression Visibility Wind Speed Wind Dir Waves Ship Positions

Polaris

Last reported at 2014-Sep-19 13:34 UTC. Time now 2014-Sep-19 13:54 UTC.
Position N 35°27' E 139°40'.

Length 26 m.

MMSI: 431000764.

Date/timePositionNaut miles runAvg speedWind from/ knotsBaromVisibWave heightAir tempDewpointWater temp
2014-Sep-19 13:34N 35°27' E 139°40'0 0.0
2014-Sep-19 12:34N 35°27' E 139°40'0 0.0
2014-Sep-19 11:33N 35°27' E 139°40'0 0.0
2014-Sep-19 10:34N 35°27' E 139°40'0 0.0
2014-Sep-19 09:34N 35°27' E 139°40'0 0.0
2014-Sep-19 08:34N 35°27' E 139°40'9 8.6
2014-Sep-19 07:33N 35°19' E 139°44'6 4.8
2014-Sep-19 06:20N 35°13' E 139°46'1013.2
2014-Sep-19 05:33N 35°23' E 139°42'4 4.4
2014-Sep-19 04:33N 35°27' E 139°40'0 0.0
2014-Sep-19 03:33N 35°27' E 139°40'0 0.0
2014-Sep-19 02:33N 35°27' E 139°40'0 0.0
2014-Sep-19 01:33N 35°27' E 139°40'0 0.0
2014-Sep-19 00:33N 35°27' E 139°40'0 0.0
2014-Sep-18 23:33N 35°27' E 139°40'0 0.0
2014-Sep-18 22:33N 35°27' E 139°40'0 0.0
2014-Sep-18 21:33N 35°27' E 139°40'0 0.0
2014-Sep-18 20:33N 35°27' E 139°40'0 0.0
2014-Sep-18 19:33N 35°27' E 139°40'4 3.8
2014-Sep-18 18:34N 35°23' E 139°42'10 9.7
2014-Sep-18 17:31N 35°14' E 139°46'1313.5
2014-Sep-18 16:34N 35°27' E 139°43'3 2.5
2014-Sep-18 15:33N 35°27' E 139°40'1 0.8
2014-Sep-18 14:33N 35°27' E 139°40'0 0.0
2014-Sep-17 08:22N 35°27' E 139°40'6 7.5
2014-Sep-17 07:33N 35°23' E 139°46'1211.8
2014-Sep-17 06:33N 35°11' E 139°47'6 6.2
2014-Sep-17 05:33N 35°17' E 139°44'10 0.4
2014-Sep-16 06:18N 35°27' E 139°40'6 8.2
2014-Sep-16 05:33N 35°30' E 139°46'2 1.6
2014-Sep-16 04:33N 35°30' E 139°44'5 4.7
2014-Sep-16 03:33N 35°27' E 139°40'0 0.0
2014-Sep-16 02:33N 35°27' E 139°40'0 0.0
2014-Sep-16 01:33N 35°27' E 139°40'0 0.0
2014-Sep-16 00:33N 35°27' E 139°40'0 0.3
2014-Sep-15 23:33N 35°27' E 139°40'3 3.2
2014-Sep-15 22:34N 35°29' E 139°43'3 3.5
2014-Sep-15 21:33N 35°27' E 139°40'2 0.2
2014-Sep-15 10:33N 35°25' E 139°42'1313.3
2014-Sep-15 09:33N 35°12' E 139°46'1211.7
2014-Sep-15 08:33N 35°24' E 139°43'4 4.0
2014-Sep-15 07:34N 35°27' E 139°40'1 0.1
2014-Sep-14 20:33N 35°27' E 139°40'1010.4
2014-Sep-14 19:33N 35°17' E 139°45'7 7.1
2014-Sep-14 18:33N 35°10' E 139°47'1212.3
2014-Sep-14 17:33N 35°22' E 139°42'5 5.1
2014-Sep-14 16:33N 35°27' E 139°40'  
2014-Sep-12 07:12N 35°27' E 139°40'6 9.8
2014-Sep-12 06:33N 35°30' E 139°46'2 1.6
2014-Sep-12 05:34N 35°31' E 139°44'5 0.1
2014-Sep-10 06:33N 35°27' E 139°42'1414.2
2014-Sep-10 05:33N 35°13' E 139°46'10 9.7
2014-Sep-10 04:34N 35°22' E 139°42'3 2.6
2014-Sep-10 03:33N 35°25' E 139°43'3 3.5
2014-Sep-10 02:33N 35°27' E 139°40'0 0.0
2014-Sep-10 01:33N 35°27' E 139°40'0 0.0
2014-Sep-10 00:33N 35°27' E 139°40'0 0.0
2014-Sep-09 23:33N 35°27' E 139°40'0 0.0
2014-Sep-09 22:33N 35°27' E 139°40'3 3.0
2014-Sep-09 21:34N 35°26' E 139°43'10 9.7
2014-Sep-09 20:33N 35°17' E 139°45'6 6.4
2014-Sep-09 19:33N 35°11' E 139°47'1212.2
2014-Sep-09 18:33N 35°22' E 139°42'5 5.1
2014-Sep-09 17:33N 35°27' E 139°40'  

Dump ship's entire track history